sensor_id;sensor_type;location;lat;lon;timestamp;temperature;humidity
9564;DHT22;4820;50.870;4.702;2023-03-01T00:01:55;1.90;99.90
9564;DHT22;4820;50.870;4.702;2023-03-01T00:04:22;1.90;99.90
9564;DHT22;4820;50.870;4.702;2023-03-01T00:06:49;1.90;99.90
9564;DHT22;4820;50.870;4.702;2023-03-01T00:09:15;1.90;99.90
9564;DHT22;4820;50.870;4.702;2023-03-01T00:11:42;1.90;99.90
9564;DHT22;4820;50.870;4.702;2023-03-01T00:14:08;1.90;99.90
9564;DHT22;4820;50.870;4.702;2023-03-01T00:16:39;1.90;99.90
9564;DHT22;4820;50.870;4.702;2023-03-01T00:19:08;2.00;99.90
9564;DHT22;4820;50.870;4.702;2023-03-01T00:21:35;2.00;99.90
9564;DHT22;4820;50.870;4.702;2023-03-01T00:24:01;2.00;99.90
9564;DHT22;4820;50.870;4.702;2023-03-01T00:26:27;2.00;99.90
9564;DHT22;4820;50.870;4.702;2023-03-01T00:28:54;2.00;99.90
9564;DHT22;4820;50.870;4.702;2023-03-01T00:31:24;2.00;99.90
9564;DHT22;4820;50.870;4.702;2023-03-01T00:33:59;2.10;99.90
9564;DHT22;4820;50.870;4.702;2023-03-01T00:36:26;2.00;99.90
9564;DHT22;4820;50.870;4.702;2023-03-01T00:38:52;2.00;99.90
9564;DHT22;4820;50.870;4.702;2023-03-01T00:41:19;2.00;99.90
9564;DHT22;4820;50.870;4.702;2023-03-01T00:43:45;2.00;99.90
9564;DHT22;4820;50.870;4.702;2023-03-01T00:46:13;2.00;99.90
9564;DHT22;4820;50.870;4.702;2023-03-01T00:48:40;2.00;99.90
9564;DHT22;4820;50.870;4.702;2023-03-01T00:51:14;1.90;99.90
9564;DHT22;4820;50.870;4.702;2023-03-01T00:53:40;1.90;99.90
9564;DHT22;4820;50.870;4.702;2023-03-01T00:56:07;1.80;99.90
9564;DHT22;4820;50.870;4.702;2023-03-01T00:58:35;1.80;99.90
9564;DHT22;4820;50.870;4.702;2023-03-01T01:01:15;1.60;99.90
9564;DHT22;4820;50.870;4.702;2023-03-01T01:04:01;1.50;99.90
9564;DHT22;4820;50.870;4.702;2023-03-01T01:06:33;1.50;99.90
9564;DHT22;4820;50.870;4.702;2023-03-01T01:09:02;1.50;99.90
9564;DHT22;4820;50.870;4.702;2023-03-01T01:11:29;1.50;99.90
9564;DHT22;4820;50.870;4.702;2023-03-01T01:13:56;1.50;99.90
9564;DHT22;4820;50.870;4.702;2023-03-01T01:16:24;1.40;99.90
9564;DHT22;4820;50.870;4.702;2023-03-01T01:18:50;1.40;99.90
9564;DHT22;4820;50.870;4.702;2023-03-01T01:21:19;1.40;99.90
9564;DHT22;4820;50.870;4.702;2023-03-01T01:23:46;1.30;99.90
9564;DHT22;4820;50.870;4.702;2023-03-01T01:26:17;1.30;99.90
9564;DHT22;4820;50.870;4.702;2023-03-01T01:28:44;1.30;99.90
9564;DHT22;4820;50.870;4.702;2023-03-01T01:31:12;1.30;99.90
9564;DHT22;4820;50.870;4.702;2023-03-01T01:33:37;1.30;99.90
9564;DHT22;4820;50.870;4.702;2023-03-01T01:36:05;1.30;99.90
9564;DHT22;4820;50.870;4.702;2023-03-01T01:38:31;1.30;99.90
9564;DHT22;4820;50.870;4.702;2023-03-01T01:40:57;1.20;99.90
9564;DHT22;4820;50.870;4.702;2023-03-01T01:43:30;1.20;99.90
9564;DHT22;4820;50.870;4.702;2023-03-01T01:46:05;1.20;99.90
9564;DHT22;4820;50.870;4.702;2023-03-01T01:51:27;1.20;99.90
9564;DHT22;4820;50.870;4.702;2023-03-01T01:53:59;1.20;99.90
9564;DHT22;4820;50.870;4.702;2023-03-01T01:56:27;1.20;99.90
9564;DHT22;4820;50.870;4.702;2023-03-01T01:58:54;1.20;99.90
9564;DHT22;4820;50.870;4.702;2023-03-01T02:01:20;1.10;99.90
9564;DHT22;4820;50.870;4.702;2023-03-01T02:03:46;1.10;99.90
9564;DHT22;4820;50.870;4.702;2023-03-01T02:06:32;1.10;99.90
9564;DHT22;4820;50.870;4.702;2023-03-01T02:09:03;1.00;99.90
9564;DHT22;4820;50.870;4.702;2023-03-01T02:11:31;1.00;99.90
9564;DHT22;4820;50.870;4.702;2023-03-01T02:13:57;1.00;99.90
9564;DHT22;4820;50.870;4.702;2023-03-01T02:16:23;1.10;99.90
9564;DHT22;4820;50.870;4.702;2023-03-01T02:18:52;1.10;99.90
9564;DHT22;4820;50.870;4.702;2023-03-01T02:24:21;1.10;99.90
9564;DHT22;4820;50.870;4.702;2023-03-01T02:26:53;1.20;99.90
9564;DHT22;4820;50.870;4.702;2023-03-01T02:29:21;1.20;99.90
9564;DHT22;4820;50.870;4.702;2023-03-01T02:31:48;1.10;99.90
9564;DHT22;4820;50.870;4.702;2023-03-01T02:34:17;1.10;99.90
9564;DHT22;4820;50.870;4.702;2023-03-01T02:36:51;1.20;99.90
9564;DHT22;4820;50.870;4.702;2023-03-01T02:39:22;1.20;99.90
9564;DHT22;4820;50.870;4.702;2023-03-01T02:41:52;1.20;99.90
9564;DHT22;4820;50.870;4.702;2023-03-01T02:44:18;1.20;99.90
9564;DHT22;4820;50.870;4.702;2023-03-01T02:46:47;1.20;99.90
9564;DHT22;4820;50.870;4.702;2023-03-01T02:49:25;1.20;99.90
9564;DHT22;4820;50.870;4.702;2023-03-01T02:52:28;1.20;99.90
9564;DHT22;4820;50.870;4.702;2023-03-01T02:55:00;1.20;99.90
9564;DHT22;4820;50.870;4.702;2023-03-01T02:57:28;1.20;99.90
9564;DHT22;4820;50.870;4.702;2023-03-01T02:59:58;1.10;99.90
9564;DHT22;4820;50.870;4.702;2023-03-01T03:02:30;1.00;99.90
9564;DHT22;4820;50.870;4.702;2023-03-01T03:05:10;1.00;99.90
9564;DHT22;4820;50.870;4.702;2023-03-01T03:07:38;1.00;99.90
9564;DHT22;4820;50.870;4.702;2023-03-01T03:10:05;1.00;99.90
9564;DHT22;4820;50.870;4.702;2023-03-01T03:12:32;1.00;99.90
9564;DHT22;4820;50.870;4.702;2023-03-01T03:14:57;1.00;99.90
9564;DHT22;4820;50.870;4.702;2023-03-01T03:17:24;1.00;99.90
9564;DHT22;4820;50.870;4.702;2023-03-01T03:19:49;1.00;99.90
9564;DHT22;4820;50.870;4.702;2023-03-01T03:22:16;1.00;99.90
9564;DHT22;4820;50.870;4.702;2023-03-01T03:24:42;0.90;99.90
9564;DHT22;4820;50.870;4.702;2023-03-01T03:27:08;0.90;99.90
9564;DHT22;4820;50.870;4.702;2023-03-01T03:29:35;0.80;99.90
9564;DHT22;4820;50.870;4.702;2023-03-01T03:32:02;0.70;99.90
9564;DHT22;4820;50.870;4.702;2023-03-01T03:34:28;0.70;99.90
9564;DHT22;4820;50.870;4.702;2023-03-01T03:36:55;0.60;99.90
9564;DHT22;4820;50.870;4.702;2023-03-01T03:39:25;0.60;99.90
9564;DHT22;4820;50.870;4.702;2023-03-01T03:41:52;0.60;99.90
9564;DHT22;4820;50.870;4.702;2023-03-01T03:44:18;0.60;99.90
9564;DHT22;4820;50.870;4.702;2023-03-01T03:46:44;0.60;99.90
9564;DHT22;4820;50.870;4.702;2023-03-01T03:49:10;0.50;99.90
9564;DHT22;4820;50.870;4.702;2023-03-01T03:51:36;0.50;99.90
9564;DHT22;4820;50.870;4.702;2023-03-01T03:54:02;0.50;99.90
9564;DHT22;4820;50.870;4.702;2023-03-01T03:56:27;0.50;99.90
9564;DHT22;4820;50.870;4.702;2023-03-01T03:58:54;0.40;99.90
9564;DHT22;4820;50.870;4.702;2023-03-01T04:01:20;0.50;99.90
9564;DHT22;4820;50.870;4.702;2023-03-01T04:03:45;0.40;99.90
9564;DHT22;4820;50.870;4.702;2023-03-01T04:06:14;0.40;99.90
9564;DHT22;4820;50.870;4.702;2023-03-01T04:08:40;0.40;99.90
9564;DHT22;4820;50.870;4.702;2023-03-01T04:11:06;0.40;99.90
9564;DHT22;4820;50.870;4.702;2023-03-01T04:13:52;0.30;99.90
9564;DHT22;4820;50.870;4.702;2023-03-01T04:16:18;0.30;99.90
9564;DHT22;4820;50.870;4.702;2023-03-01T04:18:44;0.30;99.90
9564;DHT22;4820;50.870;4.702;2023-03-01T04:21:10;0.30;99.90
9564;DHT22;4820;50.870;4.702;2023-03-01T04:23:37;0.30;99.90
9564;DHT22;4820;50.870;4.702;2023-03-01T04:26:03;0.40;99.90
9564;DHT22;4820;50.870;4.702;2023-03-01T04:28:33;0.40;99.90
9564;DHT22;4820;50.870;4.702;2023-03-01T04:31:10;0.40;99.90
9564;DHT22;4820;50.870;4.702;2023-03-01T04:36:10;0.40;99.90
9564;DHT22;4820;50.870;4.702;2023-03-01T04:38:37;0.40;99.90
9564;DHT22;4820;50.870;4.702;2023-03-01T04:41:05;0.40;99.90
9564;DHT22;4820;50.870;4.702;2023-03-01T04:43:31;0.40;99.90
9564;DHT22;4820;50.870;4.702;2023-03-01T04:46:07;0.40;99.90
9564;DHT22;4820;50.870;4.702;2023-03-01T04:48:39;0.30;99.90
9564;DHT22;4820;50.870;4.702;2023-03-01T04:51:05;0.30;99.90
9564;DHT22;4820;50.870;4.702;2023-03-01T04:53:32;0.30;99.90
9564;DHT22;4820;50.870;4.702;2023-03-01T04:55:58;0.30;99.90
9564;DHT22;4820;50.870;4.702;2023-03-01T04:58:26;0.30;99.90
9564;DHT22;4820;50.870;4.702;2023-03-01T05:00:54;0.30;99.90
9564;DHT22;4820;50.870;4.702;2023-03-01T05:03:20;0.30;99.90
9564;DHT22;4820;50.870;4.702;2023-03-01T05:05:48;0.20;99.90
9564;DHT22;4820;50.870;4.702;2023-03-01T05:08:14;0.20;99.90
9564;DHT22;4820;50.870;4.702;2023-03-01T05:10:53;0.20;99.90
9564;DHT22;4820;50.870;4.702;2023-03-01T05:13:20;0.30;99.90
9564;DHT22;4820;50.870;4.702;2023-03-01T05:15:57;0.20;99.90
9564;DHT22;4820;50.870;4.702;2023-03-01T05:18:25;0.20;99.90
9564;DHT22;4820;50.870;4.702;2023-03-01T05:21:05;0.20;99.90
9564;DHT22;4820;50.870;4.702;2023-03-01T05:23:32;0.10;99.90
9564;DHT22;4820;50.870;4.702;2023-03-01T05:25:59;0.10;99.90
9564;DHT22;4820;50.870;4.702;2023-03-01T05:28:26;0.10;99.90
9564;DHT22;4820;50.870;4.702;2023-03-01T05:30:52;0.00;99.90
9564;DHT22;4820;50.870;4.702;2023-03-01T05:33:18;0.00;99.90
9564;DHT22;4820;50.870;4.702;2023-03-01T05:35:45;0.00;99.90
9564;DHT22;4820;50.870;4.702;2023-03-01T05:38:12;0.00;99.90
9564;DHT22;4820;50.870;4.702;2023-03-01T05:40:45;0.00;99.90
9564;DHT22;4820;50.870;4.702;2023-03-01T05:43:13;0.00;99.90
9564;DHT22;4820;50.870;4.702;2023-03-01T05:45:40;-0.10;99.90
9564;DHT22;4820;50.870;4.702;2023-03-01T05:48:06;-0.10;99.90
9564;DHT22;4820;50.870;4.702;2023-03-01T05:50:36;-0.10;99.90
9564;DHT22;4820;50.870;4.702;2023-03-01T05:53:04;-0.10;99.90
9564;DHT22;4820;50.870;4.702;2023-03-01T05:55:35;-0.20;99.90
9564;DHT22;4820;50.870;4.702;2023-03-01T05:58:03;-0.10;99.90
9564;DHT22;4820;50.870;4.702;2023-03-01T06:00:30;-0.10;99.90
9564;DHT22;4820;50.870;4.702;2023-03-01T06:02:59;-0.10;99.90
9564;DHT22;4820;50.870;4.702;2023-03-01T06:05:25;0.00;99.90
9564;DHT22;4820;50.870;4.702;2023-03-01T06:07:52;0.10;99.90
9564;DHT22;4820;50.870;4.702;2023-03-01T06:10:20;0.10;99.90
9564;DHT22;4820;50.870;4.702;2023-03-01T06:12:46;0.10;99.90
9564;DHT22;4820;50.870;4.702;2023-03-01T06:15:13;0.00;99.90
9564;DHT22;4820;50.870;4.702;2023-03-01T06:17:41;-0.10;99.90
9564;DHT22;4820;50.870;4.702;2023-03-01T06:20:16;-0.10;99.90
9564;DHT22;4820;50.870;4.702;2023-03-01T06:22:45;-0.10;99.90
9564;DHT22;4820;50.870;4.702;2023-03-01T06:25:13;-0.10;99.90
9564;DHT22;4820;50.870;4.702;2023-03-01T06:27:40;-0.10;99.90
9564;DHT22;4820;50.870;4.702;2023-03-01T06:30:07;-0.10;99.90
9564;DHT22;4820;50.870;4.702;2023-03-01T06:32:33;-0.10;99.90
9564;DHT22;4820;50.870;4.702;2023-03-01T06:35:00;-0.10;99.90
9564;DHT22;4820;50.870;4.702;2023-03-01T06:37:26;-0.10;99.90
9564;DHT22;4820;50.870;4.702;2023-03-01T06:39:51;-0.10;99.90
9564;DHT22;4820;50.870;4.702;2023-03-01T06:42:17;-0.20;99.90
9564;DHT22;4820;50.870;4.702;2023-03-01T06:44:44;-0.20;99.90
9564;DHT22;4820;50.870;4.702;2023-03-01T06:47:09;-0.20;99.90
9564;DHT22;4820;50.870;4.702;2023-03-01T06:49:35;-0.20;99.90
9564;DHT22;4820;50.870;4.702;2023-03-01T06:52:01;-0.20;99.90
9564;DHT22;4820;50.870;4.702;2023-03-01T06:54:26;-0.20;99.90
9564;DHT22;4820;50.870;4.702;2023-03-01T06:56:52;-0.20;99.90
9564;DHT22;4820;50.870;4.702;2023-03-01T06:59:19;-0.30;99.90
9564;DHT22;4820;50.870;4.702;2023-03-01T07:01:44;-0.20;99.90
9564;DHT22;4820;50.870;4.702;2023-03-01T07:04:11;-0.20;99.90
9564;DHT22;4820;50.870;4.702;2023-03-01T07:06:37;-0.20;99.90
9564;DHT22;4820;50.870;4.702;2023-03-01T07:09:04;-0.20;99.90
9564;DHT22;4820;50.870;4.702;2023-03-01T07:11:29;-0.20;99.90
9564;DHT22;4820;50.870;4.702;2023-03-01T07:13:55;-0.20;99.90
9564;DHT22;4820;50.870;4.702;2023-03-01T07:16:21;-0.10;99.90
9564;DHT22;4820;50.870;4.702;2023-03-01T07:18:47;-0.10;99.90
9564;DHT22;4820;50.870;4.702;2023-03-01T07:21:14;-0.10;99.90
9564;DHT22;4820;50.870;4.702;2023-03-01T07:23:40;0.00;99.90
9564;DHT22;4820;50.870;4.702;2023-03-01T07:26:07;0.00;99.90
9564;DHT22;4820;50.870;4.702;2023-03-01T07:28:33;0.00;99.90
9564;DHT22;4820;50.870;4.702;2023-03-01T07:31:05;0.00;99.90
9564;DHT22;4820;50.870;4.702;2023-03-01T07:33:32;0.00;99.90
9564;DHT22;4820;50.870;4.702;2023-03-01T07:35:59;0.00;99.90
9564;DHT22;4820;50.870;4.702;2023-03-01T07:38:25;0.00;99.90
9564;DHT22;4820;50.870;4.702;2023-03-01T07:40:51;0.10;99.90
9564;DHT22;4820;50.870;4.702;2023-03-01T07:43:17;0.10;99.90
9564;DHT22;4820;50.870;4.702;2023-03-01T07:45:43;0.10;99.90
9564;DHT22;4820;50.870;4.702;2023-03-01T07:48:08;0.20;99.90
9564;DHT22;4820;50.870;4.702;2023-03-01T07:50:35;0.20;99.90
9564;DHT22;4820;50.870;4.702;2023-03-01T07:53:00;0.20;99.90
9564;DHT22;4820;50.870;4.702;2023-03-01T07:55:26;0.30;99.90
9564;DHT22;4820;50.870;4.702;2023-03-01T07:57:52;0.30;99.90
9564;DHT22;4820;50.870;4.702;2023-03-01T08:00:19;0.40;99.90
9564;DHT22;4820;50.870;4.702;2023-03-01T08:02:45;0.40;99.90
9564;DHT22;4820;50.870;4.702;2023-03-01T08:05:11;0.50;99.90
9564;DHT22;4820;50.870;4.702;2023-03-01T08:07:37;0.60;99.90
9564;DHT22;4820;50.870;4.702;2023-03-01T08:10:03;0.60;99.90
9564;DHT22;4820;50.870;4.702;2023-03-01T08:12:29;0.70;99.90
9564;DHT22;4820;50.870;4.702;2023-03-01T08:14:55;0.70;99.90
9564;DHT22;4820;50.870;4.702;2023-03-01T08:17:22;0.80;99.90
9564;DHT22;4820;50.870;4.702;2023-03-01T08:19:48;0.90;99.90
9564;DHT22;4820;50.870;4.702;2023-03-01T08:22:13;0.90;99.90
9564;DHT22;4820;50.870;4.702;2023-03-01T08:24:41;0.90;99.90
9564;DHT22;4820;50.870;4.702;2023-03-01T08:27:07;1.00;99.90
9564;DHT22;4820;50.870;4.702;2023-03-01T08:29:33;1.10;99.90
9564;DHT22;4820;50.870;4.702;2023-03-01T08:31:59;1.10;99.90
9564;DHT22;4820;50.870;4.702;2023-03-01T08:34:25;1.20;99.90
9564;DHT22;4820;50.870;4.702;2023-03-01T08:36:51;1.20;99.90
9564;DHT22;4820;50.870;4.702;2023-03-01T08:39:19;1.20;99.90
9564;DHT22;4820;50.870;4.702;2023-03-01T08:41:46;1.30;99.90
9564;DHT22;4820;50.870;4.702;2023-03-01T08:44:12;1.30;99.90
9564;DHT22;4820;50.870;4.702;2023-03-01T08:46:40;1.30;99.90
9564;DHT22;4820;50.870;4.702;2023-03-01T08:49:12;1.40;99.90
9564;DHT22;4820;50.870;4.702;2023-03-01T08:51:38;1.40;99.90
9564;DHT22;4820;50.870;4.702;2023-03-01T08:54:11;1.40;99.90
9564;DHT22;4820;50.870;4.702;2023-03-01T08:56:37;1.50;99.90
9564;DHT22;4820;50.870;4.702;2023-03-01T08:59:03;1.60;99.90
9564;DHT22;4820;50.870;4.702;2023-03-01T09:01:29;1.70;99.90
9564;DHT22;4820;50.870;4.702;2023-03-01T09:03:55;1.70;99.90
9564;DHT22;4820;50.870;4.702;2023-03-01T09:06:21;1.90;99.90
9564;DHT22;4820;50.870;4.702;2023-03-01T09:08:48;1.90;99.90
9564;DHT22;4820;50.870;4.702;2023-03-01T09:11:17;2.00;99.90
9564;DHT22;4820;50.870;4.702;2023-03-01T09:13:44;2.00;99.90
9564;DHT22;4820;50.870;4.702;2023-03-01T09:16:12;2.10;99.90
9564;DHT22;4820;50.870;4.702;2023-03-01T09:18:38;2.10;99.90
9564;DHT22;4820;50.870;4.702;2023-03-01T09:21:06;2.20;99.90
9564;DHT22;4820;50.870;4.702;2023-03-01T09:23:35;2.30;99.90
9564;DHT22;4820;50.870;4.702;2023-03-01T09:26:05;2.30;99.90
9564;DHT22;4820;50.870;4.702;2023-03-01T09:28:31;2.40;99.90
9564;DHT22;4820;50.870;4.702;2023-03-01T09:31:01;2.50;99.90
9564;DHT22;4820;50.870;4.702;2023-03-01T09:33:31;2.60;99.90
9564;DHT22;4820;50.870;4.702;2023-03-01T09:35:58;2.70;99.90
9564;DHT22;4820;50.870;4.702;2023-03-01T09:38:24;2.70;99.90
9564;DHT22;4820;50.870;4.702;2023-03-01T09:40:51;2.90;99.90
9564;DHT22;4820;50.870;4.702;2023-03-01T09:43:26;2.90;99.90
9564;DHT22;4820;50.870;4.702;2023-03-01T09:45:59;3.00;99.90
9564;DHT22;4820;50.870;4.702;2023-03-01T09:48:27;3.00;99.90
9564;DHT22;4820;50.870;4.702;2023-03-01T09:50:57;3.20;99.90
9564;DHT22;4820;50.870;4.702;2023-03-01T09:53:33;3.20;99.90
9564;DHT22;4820;50.870;4.702;2023-03-01T09:56:23;3.30;99.90
9564;DHT22;4820;50.870;4.702;2023-03-01T10:04:48;3.50;99.90
9564;DHT22;4820;50.870;4.702;2023-03-01T10:07:27;3.50;99.90
9564;DHT22;4820;50.870;4.702;2023-03-01T10:09:56;3.60;99.90
9564;DHT22;4820;50.870;4.702;2023-03-01T10:12:33;3.60;99.90
9564;DHT22;4820;50.870;4.702;2023-03-01T10:15:13;3.70;99.90
9564;DHT22;4820;50.870;4.702;2023-03-01T10:17:50;3.80;99.90
9564;DHT22;4820;50.870;4.702;2023-03-01T10:20:26;3.80;99.90
9564;DHT22;4820;50.870;4.702;2023-03-01T10:22:52;3.90;99.90
9564;DHT22;4820;50.870;4.702;2023-03-01T10:25:28;4.00;99.90
9564;DHT22;4820;50.870;4.702;2023-03-01T10:28:03;4.00;99.90
9564;DHT22;4820;50.870;4.702;2023-03-01T10:30:39;4.10;99.90
9564;DHT22;4820;50.870;4.702;2023-03-01T10:33:21;4.10;99.90
9564;DHT22;4820;50.870;4.702;2023-03-01T10:35:47;4.20;99.90
9564;DHT22;4820;50.870;4.702;2023-03-01T10:38:15;4.20;99.90
9564;DHT22;4820;50.870;4.702;2023-03-01T10:40:55;4.30;99.90
9564;DHT22;4820;50.870;4.702;2023-03-01T10:43:25;4.40;99.90
9564;DHT22;4820;50.870;4.702;2023-03-01T10:45:52;4.50;99.90
9564;DHT22;4820;50.870;4.702;2023-03-01T10:48:25;4.50;99.90
9564;DHT22;4820;50.870;4.702;2023-03-01T10:53:47;4.60;99.90
9564;DHT22;4820;50.870;4.702;2023-03-01T10:56:15;4.70;99.90
9564;DHT22;4820;50.870;4.702;2023-03-01T10:58:57;4.70;99.90
9564;DHT22;4820;50.870;4.702;2023-03-01T11:01:26;4.70;99.90
9564;DHT22;4820;50.870;4.702;2023-03-01T11:06:30;4.90;99.90
9564;DHT22;4820;50.870;4.702;2023-03-01T11:09:17;4.90;99.90
9564;DHT22;4820;50.870;4.702;2023-03-01T11:11:45;4.90;99.90
9564;DHT22;4820;50.870;4.702;2023-03-01T11:14:24;4.90;99.90
9564;DHT22;4820;50.870;4.702;2023-03-01T11:17:03;5.00;99.90
9564;DHT22;4820;50.870;4.702;2023-03-01T11:19:29;5.10;99.90
9564;DHT22;4820;50.870;4.702;2023-03-01T11:22:06;5.10;99.90
9564;DHT22;4820;50.870;4.702;2023-03-01T11:24:43;5.20;99.90
9564;DHT22;4820;50.870;4.702;2023-03-01T11:27:26;5.20;99.90
9564;DHT22;4820;50.870;4.702;2023-03-01T11:30:00;5.20;99.90
9564;DHT22;4820;50.870;4.702;2023-03-01T11:32:38;5.20;99.90
9564;DHT22;4820;50.870;4.702;2023-03-01T11:35:15;5.30;99.90
9564;DHT22;4820;50.870;4.702;2023-03-01T11:40:46;5.30;99.70
9564;DHT22;4820;50.870;4.702;2023-03-01T11:51:42;5.70;99.30
9564;DHT22;4820;50.870;4.702;2023-03-01T11:57:00;5.80;98.60
9564;DHT22;4820;50.870;4.702;2023-03-01T12:07:17;6.20;98.60
9564;DHT22;4820;50.870;4.702;2023-03-01T12:12:37;6.20;98.20
9564;DHT22;4820;50.870;4.702;2023-03-01T12:15:11;6.30;98.00
9564;DHT22;4820;50.870;4.702;2023-03-01T12:18:25;6.30;97.60
9564;DHT22;4820;50.870;4.702;2023-03-01T12:20:58;6.40;97.30
9564;DHT22;4820;50.870;4.702;2023-03-01T12:33:53;6.60;96.60
9564;DHT22;4820;50.870;4.702;2023-03-01T12:42:43;6.90;96.30
9564;DHT22;4820;50.870;4.702;2023-03-01T12:53:04;7.00;96.00
9564;DHT22;4820;50.870;4.702;2023-03-01T12:55:37;7.10;95.90
9564;DHT22;4820;50.870;4.702;2023-03-01T12:58:15;7.10;95.70
9564;DHT22;4820;50.870;4.702;2023-03-01T13:01:05;7.20;95.90
9564;DHT22;4820;50.870;4.702;2023-03-01T13:10:05;7.20;94.50
9564;DHT22;4820;50.870;4.702;2023-03-01T13:17:49;7.20;94.60
9564;DHT22;4820;50.870;4.702;2023-03-01T13:20:17;7.20;94.40
9564;DHT22;4820;50.870;4.702;2023-03-01T13:22:45;7.20;94.40
9564;DHT22;4820;50.870;4.702;2023-03-01T13:25:16;7.20;94.70
9564;DHT22;4820;50.870;4.702;2023-03-01T13:27:43;7.20;94.70
9564;DHT22;4820;50.870;4.702;2023-03-01T13:33:39;7.30;94.40
9564;DHT22;4820;50.870;4.702;2023-03-01T13:36:07;7.30;94.30
9564;DHT22;4820;50.870;4.702;2023-03-01T13:41:13;7.40;93.80
9564;DHT22;4820;50.870;4.702;2023-03-01T13:43:42;7.40;93.80
9564;DHT22;4820;50.870;4.702;2023-03-01T13:46:15;7.40;93.90
9564;DHT22;4820;50.870;4.702;2023-03-01T13:48:45;7.70;94.10
9564;DHT22;4820;50.870;4.702;2023-03-01T13:51:12;7.90;93.00
9564;DHT22;4820;50.870;4.702;2023-03-01T13:53:46;8.10;92.30
9564;DHT22;4820;50.870;4.702;2023-03-01T13:56:32;8.10;92.40
9564;DHT22;4820;50.870;4.702;2023-03-01T13:59:20;8.00;92.20
9564;DHT22;4820;50.870;4.702;2023-03-01T14:01:55;7.90;92.10
9564;DHT22;4820;50.870;4.702;2023-03-01T14:04:27;7.70;92.40
9564;DHT22;4820;50.870;4.702;2023-03-01T14:07:21;7.60;92.60
9564;DHT22;4820;50.870;4.702;2023-03-01T14:09:52;7.60;92.80
9564;DHT22;4820;50.870;4.702;2023-03-01T14:20:58;7.50;93.30
9564;DHT22;4820;50.870;4.702;2023-03-01T14:23:26;7.50;93.10
9564;DHT22;4820;50.870;4.702;2023-03-01T14:25:54;7.50;92.90
9564;DHT22;4820;50.870;4.702;2023-03-01T14:28:23;7.60;92.80
9564;DHT22;4820;50.870;4.702;2023-03-01T14:30:54;7.60;92.10
9564;DHT22;4820;50.870;4.702;2023-03-01T14:38:35;7.50;92.30
9564;DHT22;4820;50.870;4.702;2023-03-01T14:41:23;7.50;92.20
9564;DHT22;4820;50.870;4.702;2023-03-01T14:44:14;7.50;92.20
9564;DHT22;4820;50.870;4.702;2023-03-01T14:46:43;7.50;91.90
9564;DHT22;4820;50.870;4.702;2023-03-01T14:49:25;7.70;91.90
9564;DHT22;4820;50.870;4.702;2023-03-01T14:51:54;8.10;91.40
9564;DHT22;4820;50.870;4.702;2023-03-01T14:54:28;8.30;91.30
9564;DHT22;4820;50.870;4.702;2023-03-01T14:56:59;8.30;91.70
9564;DHT22;4820;50.870;4.702;2023-03-01T14:59:26;8.30;91.80
9564;DHT22;4820;50.870;4.702;2023-03-01T15:01:56;8.30;91.50
9564;DHT22;4820;50.870;4.702;2023-03-01T15:04:23;8.20;90.90
9564;DHT22;4820;50.870;4.702;2023-03-01T15:06:54;8.00;90.70
9564;DHT22;4820;50.870;4.702;2023-03-01T15:09:21;7.80;90.50
9564;DHT22;4820;50.870;4.702;2023-03-01T15:11:50;7.70;90.50
9564;DHT22;4820;50.870;4.702;2023-03-01T15:14:39;7.60;90.60
9564;DHT22;4820;50.870;4.702;2023-03-01T15:17:21;7.50;90.70
9564;DHT22;4820;50.870;4.702;2023-03-01T15:19:49;7.40;91.10
9564;DHT22;4820;50.870;4.702;2023-03-01T15:22:16;7.40;91.00
9564;DHT22;4820;50.870;4.702;2023-03-01T15:24:47;7.40;91.10
9564;DHT22;4820;50.870;4.702;2023-03-01T15:27:17;7.40;91.00
9564;DHT22;4820;50.870;4.702;2023-03-01T15:29:57;7.40;91.30
9564;DHT22;4820;50.870;4.702;2023-03-01T15:34:50;7.30;91.00
9564;DHT22;4820;50.870;4.702;2023-03-01T15:37:37;7.30;91.10
9564;DHT22;4820;50.870;4.702;2023-03-01T15:40:22;7.30;91.40
9564;DHT22;4820;50.870;4.702;2023-03-01T15:43:06;7.40;91.50
9564;DHT22;4820;50.870;4.702;2023-03-01T15:45:33;7.50;91.60
9564;DHT22;4820;50.870;4.702;2023-03-01T15:48:14;7.60;91.40
9564;DHT22;4820;50.870;4.702;2023-03-01T15:50:42;7.70;91.10
9564;DHT22;4820;50.870;4.702;2023-03-01T15:53:14;7.80;91.40
9564;DHT22;4820;50.870;4.702;2023-03-01T15:55:40;8.00;91.30
9564;DHT22;4820;50.870;4.702;2023-03-01T15:58:13;8.10;91.20
9564;DHT22;4820;50.870;4.702;2023-03-01T16:00:39;7.80;91.50
9564;DHT22;4820;50.870;4.702;2023-03-01T16:03:07;7.60;91.90
9564;DHT22;4820;50.870;4.702;2023-03-01T16:05:35;7.40;92.10
9564;DHT22;4820;50.870;4.702;2023-03-01T16:08:02;7.30;91.90
9564;DHT22;4820;50.870;4.702;2023-03-01T16:10:28;7.20;91.80
9564;DHT22;4820;50.870;4.702;2023-03-01T16:12:54;7.10;91.90
9564;DHT22;4820;50.870;4.702;2023-03-01T16:15:21;7.00;92.00
9564;DHT22;4820;50.870;4.702;2023-03-01T16:17:47;7.00;92.10
9564;DHT22;4820;50.870;4.702;2023-03-01T16:20:14;7.00;92.30
9564;DHT22;4820;50.870;4.702;2023-03-01T16:22:43;6.90;92.50
9564;DHT22;4820;50.870;4.702;2023-03-01T16:25:15;6.80;92.70
9564;DHT22;4820;50.870;4.702;2023-03-01T16:27:49;6.80;92.70
9564;DHT22;4820;50.870;4.702;2023-03-01T16:30:18;6.80;92.60
9564;DHT22;4820;50.870;4.702;2023-03-01T16:32:46;6.80;92.60
9564;DHT22;4820;50.870;4.702;2023-03-01T16:35:14;6.70;92.40
9564;DHT22;4820;50.870;4.702;2023-03-01T16:37:40;6.60;93.00
9564;DHT22;4820;50.870;4.702;2023-03-01T16:40:21;6.60;92.80
9564;DHT22;4820;50.870;4.702;2023-03-01T16:42:49;6.60;92.90
9564;DHT22;4820;50.870;4.702;2023-03-01T16:45:15;6.60;93.00
9564;DHT22;4820;50.870;4.702;2023-03-01T16:47:41;6.60;93.20
9564;DHT22;4820;50.870;4.702;2023-03-01T16:50:07;6.50;93.40
9564;DHT22;4820;50.870;4.702;2023-03-01T16:52:33;6.50;93.50
9564;DHT22;4820;50.870;4.702;2023-03-01T16:54:59;6.40;93.60
9564;DHT22;4820;50.870;4.702;2023-03-01T16:57:25;6.40;93.70
9564;DHT22;4820;50.870;4.702;2023-03-01T16:59:54;6.40;94.00
9564;DHT22;4820;50.870;4.702;2023-03-01T17:02:20;6.30;94.10
9564;DHT22;4820;50.870;4.702;2023-03-01T17:04:52;6.30;94.30
9564;DHT22;4820;50.870;4.702;2023-03-01T17:07:18;6.20;94.50
9564;DHT22;4820;50.870;4.702;2023-03-01T17:09:44;6.20;94.50
9564;DHT22;4820;50.870;4.702;2023-03-01T17:12:12;6.20;94.70
9564;DHT22;4820;50.870;4.702;2023-03-01T17:14:38;6.10;94.80
9564;DHT22;4820;50.870;4.702;2023-03-01T17:17:09;6.10;94.80
9564;DHT22;4820;50.870;4.702;2023-03-01T17:19:35;6.10;95.10
9564;DHT22;4820;50.870;4.702;2023-03-01T17:22:06;6.00;95.30
9564;DHT22;4820;50.870;4.702;2023-03-01T17:24:33;6.00;95.30
9564;DHT22;4820;50.870;4.702;2023-03-01T17:26:59;5.90;95.40
9564;DHT22;4820;50.870;4.702;2023-03-01T17:29:24;5.90;95.50
9564;DHT22;4820;50.870;4.702;2023-03-01T17:31:50;5.90;95.60
9564;DHT22;4820;50.870;4.702;2023-03-01T17:34:16;5.90;95.70
9564;DHT22;4820;50.870;4.702;2023-03-01T17:36:41;5.90;95.80
9564;DHT22;4820;50.870;4.702;2023-03-01T17:39:09;5.80;96.00
9564;DHT22;4820;50.870;4.702;2023-03-01T17:41:35;5.70;96.00
9564;DHT22;4820;50.870;4.702;2023-03-01T17:44:01;5.70;96.30
9564;DHT22;4820;50.870;4.702;2023-03-01T17:46:27;5.70;96.50
9564;DHT22;4820;50.870;4.702;2023-03-01T17:48:54;5.70;96.50
9564;DHT22;4820;50.870;4.702;2023-03-01T17:51:21;5.60;96.70
9564;DHT22;4820;50.870;4.702;2023-03-01T17:53:47;5.60;96.90
9564;DHT22;4820;50.870;4.702;2023-03-01T17:56:12;5.60;97.00
9564;DHT22;4820;50.870;4.702;2023-03-01T17:58:38;5.60;97.10
9564;DHT22;4820;50.870;4.702;2023-03-01T18:01:16;5.50;97.10
9564;DHT22;4820;50.870;4.702;2023-03-01T18:03:42;5.50;97.20
9564;DHT22;4820;50.870;4.702;2023-03-01T18:06:20;5.50;97.40
9564;DHT22;4820;50.870;4.702;2023-03-01T18:08:46;5.40;97.50
9564;DHT22;4820;50.870;4.702;2023-03-01T18:11:13;5.40;97.70
9564;DHT22;4820;50.870;4.702;2023-03-01T18:13:39;5.30;97.80
9564;DHT22;4820;50.870;4.702;2023-03-01T18:16:10;5.30;98.00